Terminal Aerodrome Forecast
Issued by NWS

Home | Current Version | Previous Version | Text Only | Print | Product List | Glossary On
Versions: 1 2 3 4 5 6 7 8 9 10 11 12 13 14 15
000
FTUS46 KOTX 220530
TAFCOE
TAF
KCOE 220530Z 2206/2306 08004KT P6SM SKC
     FM221700 04007KT P6SM FEW070 SCT100
     FM222300 03009G15KT P6SM VCSH SCT080 SCT120
     FM230300 04008KT P6SM SKC=

USA.gov is the U.S. government's official web portal to all federal, state and local government web resources and services.